Time;durP1;ratioP1;P1;durP2;ratioP2;P2;SDS_P1;SDS_P2;PMS_P1;PMS_P2;Temp;Humidity;BMP_temperature;BMP_pressure;BME280_temperature;BME280_humidity;BME280_pressure;Samples;Min_cycle;Max_cycle;Signal;HPM_P1;HPM_P2
2023/09/23 00:00:24;;;;;;;0.75;0.70;;;;;;;;;;4996239;28;20042;-70
2023/09/23 00:02:49;;;;;;;1.48;0.77;;;;;;;;;;4996218;28;20239;-70
2023/09/23 00:05:16;;;;;;;0.70;0.70;;;;;;;;;;4988411;28;20042;-70
2023/09/23 00:07:44;;;;;;;1.23;0.63;;;;;;;;;;4993046;28;20424;-70
2023/09/23 00:10:11;;;;;;;0.80;0.80;;;;;;;;;;4994764;28;20030;-70
2023/09/23 00:12:38;;;;;;;1.58;0.90;;;;;;;;;;4998168;28;20435;-70
2023/09/23 00:15:07;;;;;;;1.27;0.90;;;;;;;;;;4995104;28;20030;-71
2023/09/23 00:17:35;;;;;;;0.85;0.70;;;;;;;;;;4988520;28;20066;-70
2023/09/23 00:20:04;;;;;;;0.60;0.60;;;;;;;;;;4989984;28;20149;-70
2023/09/23 00:22:30;;;;;;;1.45;1.35;;;;;;;;;;4995983;28;20130;-70
2023/09/23 00:24:55;;;;;;;0.63;0.63;;;;;;;;;;4996469;28;20061;-71
2023/09/23 00:27:21;;;;;;;4.18;0.80;;;;;;;;;;4992044;28;20105;-71
2023/09/23 00:29:49;;;;;;;0.40;0.40;;;;;;;;;;4994846;28;20066;-70
2023/09/23 00:32:15;;;;;;;0.98;0.75;;;;;;;;;;4997005;28;20038;-70
2023/09/23 00:34:40;;;;;;;0.70;0.70;;;;;;;;;;4990056;28;20025;-70
2023/09/23 00:37:08;;;;;;;0.60;0.60;;;;;;;;;;4993282;28;20070;-70
2023/09/23 00:39:41;;;;;;;0.70;0.70;;;;;;;;;;4986755;28;20061;-70
2023/09/23 00:42:10;;;;;;;0.60;0.60;;;;;;;;;;4994352;28;21925;-70
2023/09/23 00:44:41;;;;;;;0.50;0.50;;;;;;;;;;4995934;28;20034;-70
2023/09/23 00:47:09;;;;;;;0.80;0.80;;;;;;;;;;4996002;28;20058;-70
2023/09/23 00:49:37;;;;;;;2.30;0.50;;;;;;;;;;4997842;28;20023;-70
2023/09/23 00:52:06;;;;;;;1.80;1.00;;;;;;;;;;4992006;28;20088;-70
2023/09/23 00:54:35;;;;;;;0.60;0.60;;;;;;;;;;4996292;28;20105;-70
2023/09/23 00:57:02;;;;;;;0.70;0.70;;;;;;;;;;4992446;28;20070;-71
2023/09/23 00:59:29;;;;;;;0.98;0.60;;;;;;;;;;4994052;28;20031;-71
2023/09/23 01:01:56;;;;;;;0.55;0.50;;;;;;;;;;4997112;28;20038;-71
2023/09/23 01:04:22;;;;;;;3.70;0.90;;;;;;;;;;4990916;28;20030;-71
2023/09/23 01:06:48;;;;;;;0.60;0.50;;;;;;;;;;4995024;28;20508;-71
2023/09/23 01:09:19;;;;;;;0.60;0.60;;;;;;;;;;4995843;28;20022;-72
2023/09/23 01:11:45;;;;;;;0.82;0.57;;;;;;;;;;4996713;28;20113;-71
2023/09/23 01:14:11;;;;;;;0.95;0.50;;;;;;;;;;4991666;28;20108;-71
2023/09/23 01:16:37;;;;;;;0.77;0.63;;;;;;;;;;4996106;28;20042;-70
2023/09/23 01:19:03;;;;;;;0.85;0.52;;;;;;;;;;4995231;28;20035;-70
2023/09/23 01:21:28;;;;;;;0.52;0.52;;;;;;;;;;4992160;28;20034;-70
2023/09/23 01:23:54;;;;;;;0.80;0.60;;;;;;;;;;4994941;28;20033;-70
2023/09/23 01:26:19;;;;;;;0.60;0.60;;;;;;;;;;4995166;28;20026;-71
2023/09/23 01:28:48;;;;;;;0.70;0.50;;;;;;;;;;4995893;28;20046;-70
2023/09/23 01:31:13;;;;;;;0.50;0.50;;;;;;;;;;4991221;28;20065;-70
2023/09/23 01:33:38;;;;;;;0.82;0.80;;;;;;;;;;4994372;28;20034;-70
2023/09/23 01:36:05;;;;;;;1.73;0.73;;;;;;;;;;4996233;28;20088;-70
2023/09/23 01:38:31;;;;;;;0.95;0.95;;;;;;;;;;4990669;28;20032;-70
2023/09/23 01:40:57;;;;;;;0.80;0.77;;;;;;;;;;4991502;28;20039;-70
2023/09/23 01:43:23;;;;;;;0.95;0.80;;;;;;;;;;4981743;28;20615;-70
2023/09/23 01:45:48;;;;;;;0.88;0.70;;;;;;;;;;4989555;28;20066;-70
2023/09/23 01:48:15;;;;;;;0.65;0.65;;;;;;;;;;4994612;28;20456;-70
2023/09/23 01:50:41;;;;;;;0.73;0.63;;;;;;;;;;4995670;28;20034;-70
2023/09/23 01:53:08;;;;;;;0.47;0.45;;;;;;;;;;4991915;28;20118;-70
2023/09/23 01:55:34;;;;;;;0.57;0.50;;;;;;;;;;4994332;28;20125;-70
2023/09/23 01:58:00;;;;;;;0.63;0.63;;;;;;;;;;4995951;28;20058;-70
2023/09/23 02:00:29;;;;;;;0.60;0.60;;;;;;;;;;4989465;28;20077;-70
2023/09/23 02:02:57;;;;;;;1.02;0.80;;;;;;;;;;4993795;28;20610;-70
2023/09/23 02:05:27;;;;;;;2.58;0.65;;;;;;;;;;4994871;28;20126;-70
2023/09/23 02:07:53;;;;;;;2.25;0.57;;;;;;;;;;4990441;28;20396;-70
2023/09/23 02:10:21;;;;;;;0.77;0.70;;;;;;;;;;4982311;28;20042;-70
2023/09/23 02:12:47;;;;;;;2.03;0.80;;;;;;;;;;4995291;28;20042;-70
2023/09/23 02:15:16;;;;;;;0.60;0.60;;;;;;;;;;4994869;28;20050;-70
2023/09/23 02:17:45;;;;;;;1.10;0.50;;;;;;;;;;4986972;28;20034;-70
2023/09/23 02:20:21;;;;;;;0.60;0.60;;;;;;;;;;4989788;28;20141;-70
2023/09/23 02:22:55;;;;;;;0.60;0.60;;;;;;;;;;4991549;28;20506;-71
2023/09/23 02:25:27;;;;;;;1.30;0.63;;;;;;;;;;4995249;28;20073;-71
2023/09/23 02:27:52;;;;;;;;;;;;;;;;;;4997187;28;20026;-71
2023/09/23 02:30:18;;;;;;;0.57;0.57;;;;;;;;;;4993690;28;20400;-71
2023/09/23 02:32:46;;;;;;;0.60;0.60;;;;;;;;;;4989555;28;20516;-71
2023/09/23 02:35:15;;;;;;;0.50;0.50;;;;;;;;;;4996592;28;20049;-71
2023/09/23 02:37:47;;;;;;;0.80;0.50;;;;;;;;;;4995791;28;20041;-71
2023/09/23 02:40:17;;;;;;;0.60;0.60;;;;;;;;;;4998611;28;20088;-70
2023/09/23 02:42:47;;;;;;;1.48;0.80;;;;;;;;;;5000018;28;20089;-71
2023/09/23 02:45:15;;;;;;;0.63;0.63;;;;;;;;;;4998068;28;20042;-71
2023/09/23 02:47:43;;;;;;;0.60;0.60;;;;;;;;;;4998035;28;20037;-71
2023/09/23 02:50:10;;;;;;;0.60;0.60;;;;;;;;;;4995805;28;20109;-71
2023/09/23 02:52:39;;;;;;;0.50;0.50;;;;;;;;;;5000131;28;20087;-71
2023/09/23 02:55:07;;;;;;;0.60;0.60;;;;;;;;;;4996094;28;20357;-71
2023/09/23 02:57:35;;;;;;;0.60;0.60;;;;;;;;;;4999127;28;20030;-71
2023/09/23 03:00:10;;;;;;;0.57;0.57;;;;;;;;;;5001497;28;20022;-71
2023/09/23 03:02:38;;;;;;;0.55;0.50;;;;;;;;;;4996737;28;20061;-71
2023/09/23 03:05:09;;;;;;;1.23;0.85;;;;;;;;;;5001987;28;20088;-71
2023/09/23 03:07:35;;;;;;;0.85;0.55;;;;;;;;;;5001302;28;20036;-71
2023/09/23 03:10:03;;;;;;;0.85;0.65;;;;;;;;;;4997478;28;20109;-71
2023/09/23 03:12:38;;;;;;;0.85;0.65;;;;;;;;;;4996920;28;20044;-71
2023/09/23 03:15:14;;;;;;;2.15;0.60;;;;;;;;;;4997935;28;20038;-72
2023/09/23 03:17:41;;;;;;;0.60;0.60;;;;;;;;;;4997003;28;20030;-71
2023/09/23 03:20:21;;;;;;;0.45;0.45;;;;;;;;;;4997356;28;20494;-71
2023/09/23 03:22:48;;;;;;;0.50;0.50;;;;;;;;;;4998880;28;20033;-71
2023/09/23 03:25:15;;;;;;;0.50;0.50;;;;;;;;;;4993457;28;20034;-71
2023/09/23 03:27:41;;;;;;;0.47;0.47;;;;;;;;;;5001875;28;20060;-70
2023/09/23 03:30:11;;;;;;;0.75;0.50;;;;;;;;;;4996507;28;20034;-71
2023/09/23 03:32:37;;;;;;;0.50;0.50;;;;;;;;;;5000372;28;20032;-71
2023/09/23 03:35:03;;;;;;;0.40;0.40;;;;;;;;;;4998562;28;20053;-71
2023/09/23 03:37:29;;;;;;;0.40;0.40;;;;;;;;;;4999930;28;20030;-71
2023/09/23 03:39:55;;;;;;;0.63;0.60;;;;;;;;;;4993581;28;20650;-71
2023/09/23 03:42:21;;;;;;;0.57;0.57;;;;;;;;;;5030888;28;20026;-72
2023/09/23 03:44:47;;;;;;;1.00;0.90;;;;;;;;;;5000425;28;20050;-71
2023/09/23 03:47:12;;;;;;;0.70;0.70;;;;;;;;;;4989609;28;20034;-71
2023/09/23 03:49:37;;;;;;;0.50;0.50;;;;;;;;;;4996313;28;20502;-71
2023/09/23 03:52:05;;;;;;;0.40;0.40;;;;;;;;;;4981187;28;20066;-71
2023/09/23 03:54:33;;;;;;;0.70;0.70;;;;;;;;;;4999158;28;20040;-71
2023/09/23 03:56:59;;;;;;;0.73;0.70;;;;;;;;;;4991370;28;20038;-71
2023/09/23 03:59:25;;;;;;;0.65;0.50;;;;;;;;;;4993095;28;20038;-71
2023/09/23 04:01:51;;;;;;;0.85;0.70;;;;;;;;;;4993945;28;20038;-71
2023/09/23 04:04:17;;;;;;;0.63;0.63;;;;;;;;;;4996930;28;20105;-71
2023/09/23 04:06:43;;;;;;;0.65;0.65;;;;;;;;;;4997784;28;20038;-71
2023/09/23 04:09:12;;;;;;;0.50;0.50;;;;;;;;;;4998433;28;20031;-71
2023/09/23 04:11:37;;;;;;;0.80;0.70;;;;;;;;;;4995122;28;20049;-70
2023/09/23 04:14:03;;;;;;;0.60;0.60;;;;;;;;;;4996224;28;20018;-70
2023/09/23 04:16:28;;;;;;;0.52;0.50;;;;;;;;;;4994926;28;20086;-70
2023/09/23 04:18:53;;;;;;;0.50;0.50;;;;;;;;;;4997878;28;20050;-70
2023/09/23 04:21:21;;;;;;;0.98;0.63;;;;;;;;;;4990420;28;20042;-70
2023/09/23 04:23:48;;;;;;;0.50;0.50;;;;;;;;;;4989124;28;20497;-70
2023/09/23 04:26:14;;;;;;;0.65;0.65;;;;;;;;;;4979872;28;20053;-70
2023/09/23 04:28:39;;;;;;;0.43;0.43;;;;;;;;;;4992972;28;20093;-70
2023/09/23 04:31:06;;;;;;;0.75;0.65;;;;;;;;;;4988201;28;20046;-70
2023/09/23 04:33:32;;;;;;;1.10;0.60;;;;;;;;;;4996253;28;20065;-70
2023/09/23 04:35:58;;;;;;;0.47;0.47;;;;;;;;;;4989846;28;20583;-70
2023/09/23 04:38:24;;;;;;;0.60;0.60;;;;;;;;;;4989716;28;20105;-70
2023/09/23 04:40:53;;;;;;;1.08;0.52;;;;;;;;;;4980427;28;20042;-70
2023/09/23 04:43:24;;;;;;;0.77;0.40;;;;;;;;;;4995334;28;20037;-70
2023/09/23 04:45:50;;;;;;;0.40;0.30;;;;;;;;;;4992040;28;20688;-71
2023/09/23 04:48:18;;;;;;;1.95;0.20;;;;;;;;;;4996437;28;20064;-71
2023/09/23 04:50:44;;;;;;;0.60;0.60;;;;;;;;;;4995535;28;20046;-71
2023/09/23 04:53:10;;;;;;;0.63;0.40;;;;;;;;;;4987432;28;20387;-71
2023/09/23 04:55:36;;;;;;;0.70;0.70;;;;;;;;;;4996549;28;20038;-71
2023/09/23 04:58:01;;;;;;;0.55;0.55;;;;;;;;;;4995969;28;20029;-71
2023/09/23 05:00:32;;;;;;;0.50;0.50;;;;;;;;;;4994908;28;20113;-71
2023/09/23 05:02:57;;;;;;;1.33;0.60;;;;;;;;;;4992747;28;20030;-71
2023/09/23 05:05:23;;;;;;;0.68;0.50;;;;;;;;;;4995499;28;20038;-71
2023/09/23 05:07:48;;;;;;;0.50;0.50;;;;;;;;;;4995918;28;20018;-70
2023/09/23 05:10:14;;;;;;;0.85;0.75;;;;;;;;;;4994246;28;20097;-70
2023/09/23 05:12:40;;;;;;;0.50;0.50;;;;;;;;;;4995602;28;20030;-70
2023/09/23 05:15:09;;;;;;;0.70;0.60;;;;;;;;;;4992418;28;20080;-70
2023/09/23 05:17:36;;;;;;;2.38;0.70;;;;;;;;;;4993054;28;20392;-70
2023/09/23 05:20:10;;;;;;;0.73;0.70;;;;;;;;;;4990428;28;20104;-70
2023/09/23 05:22:35;;;;;;;1.88;0.57;;;;;;;;;;4988192;28;20030;-70
2023/09/23 05:25:00;;;;;;;0.60;0.60;;;;;;;;;;4994773;28;20516;-69
2023/09/23 05:27:26;;;;;;;0.65;0.60;;;;;;;;;;4991435;28;20389;-69
2023/09/23 05:29:53;;;;;;;0.80;0.50;;;;;;;;;;4992545;28;20035;-70
2023/09/23 05:32:20;;;;;;;0.73;0.73;;;;;;;;;;4994758;28;20396;-69
2023/09/23 05:34:45;;;;;;;0.77;0.77;;;;;;;;;;4996429;28;20484;-69
2023/09/23 05:37:11;;;;;;;0.95;0.73;;;;;;;;;;4990565;28;20035;-70
2023/09/23 05:39:37;;;;;;;0.90;0.80;;;;;;;;;;4989825;28;20022;-69
2023/09/23 05:42:03;;;;;;;0.50;0.50;;;;;;;;;;4990018;28;20046;-69
2023/09/23 05:44:28;;;;;;;0.60;0.55;;;;;;;;;;4995884;28;20022;-69
2023/09/23 05:46:53;;;;;;;0.47;0.47;;;;;;;;;;4995578;28;20042;-70
2023/09/23 05:49:19;;;;;;;0.65;0.60;;;;;;;;;;4985764;28;20038;-69
2023/09/23 05:51:45;;;;;;;0.77;0.77;;;;;;;;;;4996748;28;20031;-69
2023/09/23 05:54:11;;;;;;;0.60;0.60;;;;;;;;;;4990138;28;20023;-69
2023/09/23 05:56:36;;;;;;;0.73;0.60;;;;;;;;;;4987985;28;20046;-69
2023/09/23 05:59:02;;;;;;;0.52;0.52;;;;;;;;;;4995712;28;20061;-69
2023/09/23 06:01:27;;;;;;;0.60;0.60;;;;;;;;;;4995609;28;20042;-70
2023/09/23 06:03:53;;;;;;;0.93;0.50;;;;;;;;;;4995081;28;20061;-69
2023/09/23 06:06:19;;;;;;;0.50;0.50;;;;;;;;;;4992944;28;20049;-69
2023/09/23 06:08:47;;;;;;;0.70;0.70;;;;;;;;;;4988378;28;20030;-69
2023/09/23 06:11:14;;;;;;;0.73;0.60;;;;;;;;;;4986526;28;20038;-70
2023/09/23 06:13:40;;;;;;;0.82;0.47;;;;;;;;;;4992545;28;20030;-70
2023/09/23 06:16:06;;;;;;;1.52;0.45;;;;;;;;;;4993024;28;20105;-69
2023/09/23 06:18:33;;;;;;;0.50;0.50;;;;;;;;;;4990955;28;20049;-70
2023/09/23 06:21:02;;;;;;;0.73;0.60;;;;;;;;;;4985016;28;20042;-71
2023/09/23 06:23:28;;;;;;;0.60;0.60;;;;;;;;;;4993882;28;20053;-71
2023/09/23 06:26:00;;;;;;;0.68;0.68;;;;;;;;;;4978064;28;20619;-72
2023/09/23 06:28:26;;;;;;;0.70;0.70;;;;;;;;;;4984200;28;20034;-70
2023/09/23 06:30:52;;;;;;;0.68;0.68;;;;;;;;;;4996170;28;20576;-70
2023/09/23 06:33:18;;;;;;;0.40;0.40;;;;;;;;;;4994558;28;20053;-70
2023/09/23 06:35:44;;;;;;;2.28;0.73;;;;;;;;;;4993685;28;20109;-70
2023/09/23 06:38:09;;;;;;;0.55;0.55;;;;;;;;;;4994561;28;20045;-70
2023/09/23 06:40:34;;;;;;;0.70;0.70;;;;;;;;;;4995386;28;20575;-70
2023/09/23 06:43:01;;;;;;;0.60;0.60;;;;;;;;;;4995027;28;20034;-70
2023/09/23 06:45:26;;;;;;;0.50;0.50;;;;;;;;;;4988333;28;20549;-70
2023/09/23 06:47:51;;;;;;;0.40;0.40;;;;;;;;;;4992392;28;20030;-71
2023/09/23 06:50:17;;;;;;;0.47;0.47;;;;;;;;;;4986714;28;20066;-70
2023/09/23 06:52:43;;;;;;;2.47;0.40;;;;;;;;;;4990900;28;20033;-70
2023/09/23 06:55:09;;;;;;;0.60;0.60;;;;;;;;;;4989086;28;20026;-70
2023/09/23 06:57:37;;;;;;;0.50;0.50;;;;;;;;;;4987423;28;20443;-71
2023/09/23 07:00:07;;;;;;;1.13;0.70;;;;;;;;;;4982096;28;20136;-70
2023/09/23 07:02:33;;;;;;;0.57;0.57;;;;;;;;;;4987047;28;20033;-71
2023/09/23 07:04:59;;;;;;;0.40;0.40;;;;;;;;;;4986466;28;20034;-70
2023/09/23 07:07:24;;;;;;;1.02;0.70;;;;;;;;;;4995211;28;20023;-70
2023/09/23 07:09:50;;;;;;;2.25;0.73;;;;;;;;;;4986793;28;20481;-71
2023/09/23 07:12:15;;;;;;;3.03;0.50;;;;;;;;;;4984525;28;20050;-68
2023/09/23 07:14:41;;;;;;;2.25;0.70;;;;;;;;;;4988821;28;20034;-68
2023/09/23 07:17:06;;;;;;;1.52;0.75;;;;;;;;;;4992956;28;20159;-68
2023/09/23 07:19:33;;;;;;;14.45;0.93;;;;;;;;;;4985274;28;20047;-69
2023/09/23 07:21:59;;;;;;;2.90;0.63;;;;;;;;;;4988144;28;20078;-68
2023/09/23 07:24:27;;;;;;;0.80;0.60;;;;;;;;;;5016139;28;20034;-68
2023/09/23 07:26:57;;;;;;;5.10;0.80;;;;;;;;;;4985007;28;20042;-69
2023/09/23 07:29:23;;;;;;;3.30;0.80;;;;;;;;;;4986923;28;20041;-68
2023/09/23 07:31:48;;;;;;;3.03;0.80;;;;;;;;;;4989040;28;20532;-68
2023/09/23 07:34:14;;;;;;;1.40;0.80;;;;;;;;;;4984353;28;20061;-69
2023/09/23 07:36:40;;;;;;;11.70;0.90;;;;;;;;;;4980032;28;20401;-68
2023/09/23 07:39:05;;;;;;;6.18;0.77;;;;;;;;;;4976891;28;20073;-69
2023/09/23 07:41:31;;;;;;;1.48;0.73;;;;;;;;;;4986451;28;20046;-69
2023/09/23 07:43:57;;;;;;;2.80;1.20;;;;;;;;;;4985970;28;20572;-69
2023/09/23 07:46:22;;;;;;;2.67;1.00;;;;;;;;;;4987228;28;20045;-70
2023/09/23 07:48:48;;;;;;;12.18;0.85;;;;;;;;;;4987463;28;20026;-73
2023/09/23 07:51:13;;;;;;;0.70;0.70;;;;;;;;;;4985174;28;20045;-77
2023/09/23 07:53:38;;;;;;;1.63;0.90;;;;;;;;;;4989950;28;20393;-75
2023/09/23 07:56:04;;;;;;;4.45;0.90;;;;;;;;;;4981281;28;20047;-75
2023/09/23 07:58:29;;;;;;;4.25;0.77;;;;;;;;;;4989220;28;20038;-75
2023/09/23 08:00:55;;;;;;;2.53;0.70;;;;;;;;;;4988456;28;20125;-75
2023/09/23 08:03:20;;;;;;;4.28;0.80;;;;;;;;;;4985011;28;20026;-74
2023/09/23 08:05:46;;;;;;;4.32;0.60;;;;;;;;;;5016096;28;20504;-74
2023/09/23 08:08:11;;;;;;;5.10;1.13;;;;;;;;;;4984942;28;20030;-75
2023/09/23 08:10:37;;;;;;;0.60;0.60;;;;;;;;;;4985393;28;20161;-76
2023/09/23 08:13:02;;;;;;;7.80;1.05;;;;;;;;;;4995363;28;20037;-72
2023/09/23 08:15:28;;;;;;;6.90;1.02;;;;;;;;;;4985622;28;20066;-72
2023/09/23 08:17:54;;;;;;;1.50;0.70;;;;;;;;;;4985477;28;20038;-73
2023/09/23 08:20:22;;;;;;;3.42;0.77;;;;;;;;;;5023421;28;20097;-73
2023/09/23 08:22:48;;;;;;;1.92;0.65;;;;;;;;;;4996813;28;20055;-73
2023/09/23 08:25:15;;;;;;;1.23;0.60;;;;;;;;;;4985921;28;20046;-73
2023/09/23 08:27:41;;;;;;;2.22;0.90;;;;;;;;;;4996826;28;20041;-73
2023/09/23 08:30:11;;;;;;;1.83;0.82;;;;;;;;;;4986853;28;20051;-73
2023/09/23 08:32:37;;;;;;;1.38;0.73;;;;;;;;;;4994938;28;20391;-73
2023/09/23 08:35:03;;;;;;;0.80;0.70;;;;;;;;;;4984570;28;20480;-72
2023/09/23 08:37:29;;;;;;;5.90;0.70;;;;;;;;;;4973890;28;20796;-73
2023/09/23 08:39:54;;;;;;;6.20;0.60;;;;;;;;;;4980416;28;20047;-72
2023/09/23 08:42:22;;;;;;;1.63;0.80;;;;;;;;;;5011979;28;20030;-73
2023/09/23 08:44:49;;;;;;;1.27;0.63;;;;;;;;;;4988049;28;20041;-74
2023/09/23 08:47:19;;;;;;;1.75;0.88;;;;;;;;;;4988827;28;20608;-75
2023/09/23 08:49:46;;;;;;;2.30;0.70;;;;;;;;;;4981812;28;20018;-72
2023/09/23 08:52:12;;;;;;;2.80;0.95;;;;;;;;;;4984881;28;20122;-71
2023/09/23 08:54:38;;;;;;;3.72;1.02;;;;;;;;;;4988534;28;20135;-75
2023/09/23 08:57:04;;;;;;;6.10;1.15;;;;;;;;;;4990904;28;20039;-74
2023/09/23 08:59:30;;;;;;;2.65;0.60;;;;;;;;;;4982877;28;20480;-75
2023/09/23 09:01:56;;;;;;;1.95;0.63;;;;;;;;;;4987385;28;20031;-75
2023/09/23 09:04:21;;;;;;;0.68;0.68;;;;;;;;;;4985797;28;20054;-75
2023/09/23 09:06:48;;;;;;;0.90;0.70;;;;;;;;;;4985141;28;20045;-75
2023/09/23 09:09:13;;;;;;;2.70;0.70;;;;;;;;;;4982799;28;20038;-75
2023/09/23 09:11:39;;;;;;;1.60;0.70;;;;;;;;;;4987879;28;20092;-75
2023/09/23 09:14:04;;;;;;;3.45;0.70;;;;;;;;;;4983917;28;20038;-75
2023/09/23 09:16:30;;;;;;;5.57;0.65;;;;;;;;;;4988035;28;20042;-75
2023/09/23 09:18:55;;;;;;;4.88;0.65;;;;;;;;;;4992539;28;20133;-75
2023/09/23 09:21:21;;;;;;;1.58;0.77;;;;;;;;;;4994245;28;20039;-75
2023/09/23 09:23:46;;;;;;;6.63;0.60;;;;;;;;;;4979078;28;20030;-73
2023/09/23 09:26:12;;;;;;;1.42;0.90;;;;;;;;;;4998131;28;20083;-76
2023/09/23 09:28:38;;;;;;;7.72;0.70;;;;;;;;;;4991779;28;20049;-76
2023/09/23 09:31:06;;;;;;;4.43;0.98;;;;;;;;;;4982984;28;20038;-75
2023/09/23 09:33:36;;;;;;;1.48;0.85;;;;;;;;;;4987962;28;20038;-74
2023/09/23 09:36:02;;;;;;;3.72;0.60;;;;;;;;;;4994268;28;20037;-74
2023/09/23 09:38:31;;;;;;;1.58;0.63;;;;;;;;;;4987584;28;20031;-74
2023/09/23 09:41:04;;;;;;;2.10;0.65;;;;;;;;;;4978911;28;20038;-73
2023/09/23 09:43:33;;;;;;;7.72;0.70;;;;;;;;;;4988030;28;20062;-72
2023/09/23 09:46:07;;;;;;;2.05;0.60;;;;;;;;;;4982501;28;20048;-74
2023/09/23 09:48:37;;;;;;;5.68;0.63;;;;;;;;;;4985500;28;20650;-74
2023/09/23 09:51:05;;;;;;;2.55;0.85;;;;;;;;;;5010951;28;20055;-77
2023/09/23 09:53:33;;;;;;;3.10;0.57;;;;;;;;;;4971853;28;20034;-73
2023/09/23 09:55:58;;;;;;;8.60;0.73;;;;;;;;;;4981064;28;20034;-74
2023/09/23 09:58:40;;;;;;;1.30;0.80;;;;;;;;;;4986255;28;20476;-72
2023/09/23 10:01:11;;;;;;;3.83;0.70;;;;;;;;;;4982124;28;20034;-71
2023/09/23 10:03:37;;;;;;;1.13;0.73;;;;;;;;;;4978444;28;20057;-72
2023/09/23 10:06:06;;;;;;;3.03;0.93;;;;;;;;;;4980510;28;20121;-73
2023/09/23 10:08:38;;;;;;;3.10;0.77;;;;;;;;;;4982901;28;20532;-73
2023/09/23 10:11:09;;;;;;;3.00;0.75;;;;;;;;;;4980516;28;20039;-73
2023/09/23 10:13:35;;;;;;;0.93;0.65;;;;;;;;;;4989436;28;20049;-72
2023/09/23 10:16:17;;;;;;;0.57;0.55;;;;;;;;;;4989914;28;20574;-72
2023/09/23 10:18:43;;;;;;;5.90;0.70;;;;;;;;;;4989695;28;20038;-72
2023/09/23 10:21:24;;;;;;;2.28;0.60;;;;;;;;;;4994562;28;20040;-72
2023/09/23 10:23:52;;;;;;;0.90;0.60;;;;;;;;;;4981256;28;20089;-72
2023/09/23 10:26:19;;;;;;;1.17;0.70;;;;;;;;;;4988294;28;20109;-72
2023/09/23 10:29:04;;;;;;;0.50;0.50;;;;;;;;;;5022986;28;20031;-72
2023/09/23 10:31:34;;;;;;;1.10;0.98;;;;;;;;;;4986970;28;21217;-70
2023/09/23 10:34:06;;;;;;;8.02;0.63;;;;;;;;;;4981956;28;20095;-76
2023/09/23 10:36:32;;;;;;;4.15;0.98;;;;;;;;;;4986968;28;20038;-73
2023/09/23 10:38:59;;;;;;;2.80;0.80;;;;;;;;;;5017636;28;20033;-75
2023/09/23 10:41:36;;;;;;;1.80;0.65;;;;;;;;;;4985500;28;20062;-74
2023/09/23 10:44:02;;;;;;;3.95;0.95;;;;;;;;;;4987253;28;20040;-75
2023/09/23 10:46:29;;;;;;;2.83;0.43;;;;;;;;;;4987411;28;20092;-75
2023/09/23 10:48:54;;;;;;;1.45;0.77;;;;;;;;;;4990286;28;20072;-74
2023/09/23 10:51:21;;;;;;;3.70;0.90;;;;;;;;;;4993254;28;20110;-74
2023/09/23 10:53:47;;;;;;;4.50;1.08;;;;;;;;;;4991500;28;20022;-74
2023/09/23 10:56:13;;;;;;;2.30;0.75;;;;;;;;;;4991350;28;20562;-74
2023/09/23 10:58:38;;;;;;;2.75;0.60;;;;;;;;;;4996938;28;20030;-73
2023/09/23 11:01:05;;;;;;;1.75;1.10;;;;;;;;;;4989657;28;20038;-75
2023/09/23 11:03:37;;;;;;;11.95;0.88;;;;;;;;;;4991440;28;20476;-74
2023/09/23 11:06:04;;;;;;;1.80;0.70;;;;;;;;;;4989768;28;20576;-75
2023/09/23 11:08:31;;;;;;;1.30;0.65;;;;;;;;;;4991592;28;20550;-74
2023/09/23 11:10:57;;;;;;;4.78;1.13;;;;;;;;;;4991108;28;20039;-72
2023/09/23 11:13:26;;;;;;;7.22;0.93;;;;;;;;;;4988957;28;20030;-74
2023/09/23 11:15:51;;;;;;;0.98;0.68;;;;;;;;;;4990762;28;20069;-75
2023/09/23 11:18:17;;;;;;;1.23;0.80;;;;;;;;;;4989542;28;20724;-74
2023/09/23 11:20:45;;;;;;;1.10;0.82;;;;;;;;;;4991658;28;20591;-74
2023/09/23 11:23:11;;;;;;;9.18;0.85;;;;;;;;;;4986469;28;20028;-76
2023/09/23 11:25:46;;;;;;;7.55;0.80;;;;;;;;;;4998592;28;20098;-76
2023/09/23 11:28:17;;;;;;;2.17;0.77;;;;;;;;;;4988059;28;20118;-71
2023/09/23 11:30:42;;;;;;;0.70;0.60;;;;;;;;;;4983591;28;20042;-77
2023/09/23 11:33:10;;;;;;;1.65;0.63;;;;;;;;;;4997011;28;20030;-77
2023/09/23 11:35:35;;;;;;;1.95;0.75;;;;;;;;;;4988629;28;20034;-78
2023/09/23 11:38:01;;;;;;;0.40;0.40;;;;;;;;;;4986133;28;20424;-77
2023/09/23 11:40:26;;;;;;;3.22;0.70;;;;;;;;;;4987470;28;20046;-77
2023/09/23 11:42:53;;;;;;;0.82;0.52;;;;;;;;;;4992597;28;20035;-78
2023/09/23 11:45:20;;;;;;;4.50;0.65;;;;;;;;;;4990649;28;20042;-78
2023/09/23 11:47:46;;;;;;;0.82;0.57;;;;;;;;;;4988575;28;20113;-77
2023/09/23 11:50:12;;;;;;;2.15;0.50;;;;;;;;;;4992639;28;20058;-78
2023/09/23 11:52:38;;;;;;;0.40;0.40;;;;;;;;;;4989605;28;20033;-77
2023/09/23 11:55:04;;;;;;;3.38;0.70;;;;;;;;;;4995254;28;20030;-76
2023/09/23 11:57:30;;;;;;;5.90;0.80;;;;;;;;;;4979018;28;20019;-77
2023/09/23 11:59:57;;;;;;;0.60;0.60;;;;;;;;;;4986759;28;20037;-76
2023/09/23 12:02:22;;;;;;;0.60;0.60;;;;;;;;;;4986631;28;20047;-77
2023/09/23 12:04:48;;;;;;;0.93;0.68;;;;;;;;;;4983706;28;21037;-76
2023/09/23 12:07:15;;;;;;;6.07;0.77;;;;;;;;;;4984422;28;20045;-75
2023/09/23 12:09:41;;;;;;;0.90;0.60;;;;;;;;;;4987012;28;20749;-75
2023/09/23 12:12:07;;;;;;;2.10;0.52;;;;;;;;;;4987035;28;20113;-75
2023/09/23 12:14:33;;;;;;;3.35;0.68;;;;;;;;;;4991014;28;20034;-74
2023/09/23 12:16:58;;;;;;;0.68;0.68;;;;;;;;;;4993954;28;20421;-74
2023/09/23 12:19:24;;;;;;;2.33;0.60;;;;;;;;;;4994387;28;20046;-74
2023/09/23 12:21:49;;;;;;;1.33;0.85;;;;;;;;;;4988937;28;20408;-74
2023/09/23 12:24:15;;;;;;;2.25;0.52;;;;;;;;;;4991753;28;20162;-74
2023/09/23 12:26:42;;;;;;;2.40;0.63;;;;;;;;;;4982702;28;20070;-73
2023/09/23 12:29:08;;;;;;;1.10;0.60;;;;;;;;;;4993518;28;20027;-74
2023/09/23 12:31:34;;;;;;;2.20;0.65;;;;;;;;;;4987988;28;20038;-73
2023/09/23 12:33:59;;;;;;;1.45;0.52;;;;;;;;;;4996064;28;20022;-74
2023/09/23 12:36:25;;;;;;;1.38;0.70;;;;;;;;;;5006991;28;20068;-73
2023/09/23 12:38:50;;;;;;;1.00;0.80;;;;;;;;;;4988749;28;20033;-73
2023/09/23 12:41:16;;;;;;;4.35;0.60;;;;;;;;;;4990221;28;20049;-72
2023/09/23 12:43:41;;;;;;;0.82;0.73;;;;;;;;;;4994339;28;20661;-74
2023/09/23 12:46:07;;;;;;;2.50;0.60;;;;;;;;;;4993519;28;20062;-74
2023/09/23 12:48:32;;;;;;;1.20;0.55;;;;;;;;;;4996963;28;20459;-74
2023/09/23 12:50:58;;;;;;;1.23;0.65;;;;;;;;;;4993683;28;20054;-74
2023/09/23 12:53:23;;;;;;;0.73;0.57;;;;;;;;;;4997303;28;20053;-74
2023/09/23 12:55:49;;;;;;;1.27;0.50;;;;;;;;;;4995582;28;20038;-73
2023/09/23 12:58:14;;;;;;;1.35;0.63;;;;;;;;;;4997721;28;20026;-73
2023/09/23 13:00:41;;;;;;;0.43;0.43;;;;;;;;;;4993411;28;20053;-72
2023/09/23 13:03:08;;;;;;;0.70;0.68;;;;;;;;;;4989611;28;20445;-71
2023/09/23 13:05:35;;;;;;;0.70;0.63;;;;;;;;;;4985271;28;20057;-74
2023/09/23 13:08:01;;;;;;;0.60;0.60;;;;;;;;;;4996164;28;20105;-74
2023/09/23 13:10:27;;;;;;;0.57;0.57;;;;;;;;;;4993915;28;20065;-74
2023/09/23 13:12:52;;;;;;;1.23;0.50;;;;;;;;;;4995340;28;20046;-74
2023/09/23 13:15:18;;;;;;;2.63;0.70;;;;;;;;;;4992085;28;20133;-76
2023/09/23 13:17:44;;;;;;;0.85;0.63;;;;;;;;;;4984303;28;20041;-74
2023/09/23 13:20:10;;;;;;;7.95;0.70;;;;;;;;;;4990319;28;20048;-73
2023/09/23 13:22:36;;;;;;;1.75;0.77;;;;;;;;;;4990338;28;20038;-68
2023/09/23 13:25:05;;;;;;;1.83;0.80;;;;;;;;;;4986604;28;20049;-70
2023/09/23 13:27:31;;;;;;;2.95;0.65;;;;;;;;;;4969251;28;20456;-68
2023/09/23 13:29:57;;;;;;;5.15;1.15;;;;;;;;;;4991853;28;20077;-69
2023/09/23 13:32:22;;;;;;;2.38;0.55;;;;;;;;;;4995968;28;20081;-69
2023/09/23 13:34:49;;;;;;;4.63;0.88;;;;;;;;;;4988970;28;20032;-69
2023/09/23 13:37:14;;;;;;;7.03;0.70;;;;;;;;;;4983235;28;20053;-68
2023/09/23 13:39:40;;;;;;;10.32;0.98;;;;;;;;;;5007169;28;20097;-69
2023/09/23 13:42:08;;;;;;;3.72;0.60;;;;;;;;;;4983621;28;20412;-69
2023/09/23 13:44:33;;;;;;;3.22;0.88;;;;;;;;;;4993913;28;20058;-69
2023/09/23 13:46:59;;;;;;;1.98;0.70;;;;;;;;;;4995396;28;20516;-69
2023/09/23 13:49:24;;;;;;;3.38;0.60;;;;;;;;;;4994896;28;20531;-69
2023/09/23 13:51:50;;;;;;;0.60;0.45;;;;;;;;;;4992170;28;20035;-69
2023/09/23 13:54:16;;;;;;;0.60;0.60;;;;;;;;;;4990515;28;20026;-69
2023/09/23 13:56:42;;;;;;;1.83;0.68;;;;;;;;;;4994652;28;20034;-68
2023/09/23 13:59:09;;;;;;;3.08;0.77;;;;;;;;;;4986000;28;20048;-68
2023/09/23 14:01:35;;;;;;;4.82;0.68;;;;;;;;;;4987152;28;20118;-68
2023/09/23 14:04:00;;;;;;;1.27;0.73;;;;;;;;;;4994555;28;20053;-69
2023/09/23 14:06:26;;;;;;;1.92;0.60;;;;;;;;;;4988777;28;20646;-70
2023/09/23 14:08:52;;;;;;;9.50;0.80;;;;;;;;;;4981198;28;20027;-68
2023/09/23 14:11:18;;;;;;;2.78;0.80;;;;;;;;;;4983601;28;20500;-67
2023/09/23 14:13:44;;;;;;;6.20;1.27;;;;;;;;;;4991095;28;20089;-72
2023/09/23 14:16:10;;;;;;;5.45;0.68;;;;;;;;;;4994105;28;20038;-67
2023/09/23 14:18:37;;;;;;;0.50;0.40;;;;;;;;;;4991639;28;20117;-70
2023/09/23 14:21:03;;;;;;;1.52;0.50;;;;;;;;;;4990965;28;20042;-68
2023/09/23 14:23:28;;;;;;;1.65;0.60;;;;;;;;;;4983868;28;20023;-69
2023/09/23 14:25:54;;;;;;;5.47;0.32;;;;;;;;;;4982632;28;20062;-70
2023/09/23 14:28:20;;;;;;;2.70;0.57;;;;;;;;;;4995770;28;20078;-70
2023/09/23 14:30:45;;;;;;;0.75;0.68;;;;;;;;;;4990704;28;20043;-70
2023/09/23 14:33:10;;;;;;;2.00;0.57;;;;;;;;;;4988782;28;20034;-69
2023/09/23 14:35:36;;;;;;;0.40;0.40;;;;;;;;;;4962537;28;20117;-69
2023/09/23 14:38:01;;;;;;;1.15;0.65;;;;;;;;;;4987447;28;20034;-69
2023/09/23 14:40:27;;;;;;;1.27;0.50;;;;;;;;;;4983740;28;20100;-69